createdAt,value
2019-03-29T00:00:28.081Z,1018.43
2019-03-29T00:01:28.068Z,1018.41
2019-03-29T00:02:28.098Z,1018.32
2019-03-29T00:03:28.057Z,1018.51
2019-03-29T00:04:28.048Z,1018.43
2019-03-29T00:05:28.039Z,1018.36
2019-03-29T00:06:28.037Z,1018.38
2019-03-29T00:07:38.816Z,1018.37
2019-03-29T00:08:29.004Z,1018.40
2019-03-29T00:09:28.560Z,1018.36
2019-03-29T00:10:27.973Z,1018.28
2019-03-29T00:11:27.966Z,1018.31
2019-03-29T00:12:27.985Z,1018.31
2019-03-29T00:13:27.951Z,1018.28
2019-03-29T00:14:27.944Z,1018.32
2019-03-29T00:15:27.933Z,1018.32
2019-03-29T00:16:27.916Z,1018.23
2019-03-29T00:17:27.925Z,1018.22
2019-03-29T00:18:27.899Z,1018.21
2019-03-29T00:19:28.104Z,1018.12
2019-03-29T00:20:27.871Z,1018.21
2019-03-29T00:21:27.863Z,1018.17
2019-03-29T00:22:27.886Z,1018.18
2019-03-29T00:23:27.836Z,1018.19
2019-03-29T00:24:27.827Z,1018.22
2019-03-29T00:25:27.816Z,1018.17
2019-03-29T00:26:27.811Z,1018.15
2019-03-29T00:27:27.835Z,1018.08
2019-03-29T00:28:27.782Z,1018.12
2019-03-29T00:29:27.778Z,1018.14
2019-03-29T00:30:27.765Z,1018.13
2019-03-29T00:31:27.771Z,1018.07
2019-03-29T00:32:27.778Z,1018.08
2019-03-29T00:33:27.732Z,1018.09
2019-03-29T00:34:27.721Z,1018.07
2019-03-29T00:35:27.798Z,1017.96
2019-03-29T00:36:27.709Z,1018.02
2019-03-29T00:37:27.723Z,1017.91
2019-03-29T00:38:27.686Z,1018.02
2019-03-29T00:39:27.666Z,1018.03
2019-03-29T00:40:27.666Z,1017.99
2019-03-29T00:41:27.647Z,1017.98
2019-03-29T00:42:27.667Z,1017.97
2019-03-29T00:43:27.639Z,1017.86
2019-03-29T00:44:27.628Z,1017.87
2019-03-29T00:45:27.605Z,1017.94
2019-03-29T00:46:27.597Z,1017.88
2019-03-29T00:47:27.627Z,1017.85
2019-03-29T00:48:27.576Z,1017.86
2019-03-29T00:49:27.615Z,1017.89
2019-03-29T00:50:27.562Z,1017.90
2019-03-29T00:51:27.542Z,1017.94
2019-03-29T00:52:27.553Z,1017.83
2019-03-29T00:53:27.522Z,1017.84
2019-03-29T00:54:28.143Z,1017.80
2019-03-29T00:55:27.528Z,1017.81
2019-03-29T00:56:27.503Z,1017.77
2019-03-29T00:57:27.511Z,1017.72
2019-03-29T00:58:27.489Z,1017.77
2019-03-29T00:59:27.460Z,1017.67
2019-03-29T01:00:27.448Z,1017.71
2019-03-29T01:01:27.435Z,1017.70
2019-03-29T01:02:27.453Z,1017.57
2019-03-29T01:03:27.429Z,1017.68
2019-03-29T01:04:27.401Z,1017.64
2019-03-29T01:05:27.393Z,1017.74
2019-03-29T01:06:27.396Z,1017.59
2019-03-29T01:07:27.402Z,1017.72
2019-03-29T01:08:27.363Z,1017.67
2019-03-29T01:09:27.352Z,1017.71
2019-03-29T01:10:27.341Z,1017.69
2019-03-29T01:11:27.324Z,1017.68
2019-03-29T01:12:27.370Z,1017.60
2019-03-29T01:13:27.306Z,1017.63
2019-03-29T01:14:27.296Z,1017.63
2019-03-29T01:15:27.292Z,1017.61
2019-03-29T01:16:27.839Z,1017.57
2019-03-29T01:17:27.263Z,1017.54
2019-03-29T01:18:27.285Z,1017.57
2019-03-29T01:19:27.259Z,1017.57
2019-03-29T01:20:27.252Z,1017.55
2019-03-29T01:21:27.220Z,1017.51
2019-03-29T01:22:27.203Z,1017.57
2019-03-29T01:23:27.226Z,1017.49
2019-03-29T01:24:27.202Z,1017.53
2019-03-29T01:25:27.179Z,1017.56
2019-03-29T01:26:27.419Z,1017.51
2019-03-29T01:27:27.172Z,1017.54
2019-03-29T01:28:27.187Z,1017.53
2019-03-29T01:29:27.139Z,1017.50
2019-03-29T01:30:27.136Z,1017.44
2019-03-29T01:31:27.121Z,1017.46
2019-03-29T01:32:27.120Z,1017.46
2019-03-29T01:33:27.116Z,1017.49
2019-03-29T01:34:27.078Z,1017.47
2019-03-29T01:35:27.084Z,1017.41
2019-03-29T01:36:27.893Z,1017.41
2019-03-29T01:37:27.055Z,1017.42
2019-03-29T01:38:27.066Z,1017.38
2019-03-29T01:39:27.028Z,1017.35
2019-03-29T01:40:27.025Z,1017.35
2019-03-29T01:41:27.342Z,1017.37
2019-03-29T01:42:27.007Z,1017.32
2019-03-29T01:43:27.030Z,1017.30
2019-03-29T01:44:27.873Z,1017.24
2019-03-29T01:45:26.957Z,1017.27
2019-03-29T01:46:26.962Z,1017.29
2019-03-29T01:47:26.956Z,1017.28
2019-03-29T01:48:26.966Z,1017.28
2019-03-29T01:49:26.925Z,1017.24
2019-03-29T01:50:26.923Z,1017.26
2019-03-29T01:51:27.234Z,1017.22
2019-03-29T01:52:26.899Z,1017.22
2019-03-29T01:53:26.906Z,1017.20
2019-03-29T01:54:26.880Z,1017.23
2019-03-29T01:55:26.867Z,1017.16
2019-03-29T01:56:26.877Z,1017.12
2019-03-29T01:57:26.841Z,1017.15
2019-03-29T01:58:26.852Z,1017.17
2019-03-29T01:59:26.820Z,1017.14
2019-03-29T02:00:26.812Z,1017.14
2019-03-29T02:01:26.808Z,1017.09
2019-03-29T02:02:26.776Z,1017.09
2019-03-29T02:03:26.799Z,1017.10
2019-03-29T02:04:26.769Z,1017.05
2019-03-29T02:05:27.701Z,1017.06
2019-03-29T02:06:26.757Z,1017.09
2019-03-29T02:07:26.731Z,1017.09
2019-03-29T02:08:35.685Z,1016.99
2019-03-29T02:09:27.714Z,1017.01
2019-03-29T02:10:26.718Z,1017.06
2019-03-29T02:11:26.697Z,1017.00
2019-03-29T02:12:26.684Z,1016.97
2019-03-29T02:13:26.708Z,1016.97
2019-03-29T02:14:26.654Z,1016.93
2019-03-29T02:15:26.653Z,1016.97
2019-03-29T02:16:26.638Z,1016.93
2019-03-29T02:17:26.642Z,1016.96
2019-03-29T02:18:26.623Z,1016.94
2019-03-29T02:19:26.637Z,1016.95
2019-03-29T02:20:26.598Z,1016.96
2019-03-29T02:21:26.593Z,1016.86
2019-03-29T02:22:26.585Z,1016.91
2019-03-29T02:23:26.564Z,1016.97
2019-03-29T02:24:26.577Z,1017.00
2019-03-29T02:25:26.554Z,1016.94
2019-03-29T02:26:26.523Z,1017.02
2019-03-29T02:27:27.194Z,1016.94
2019-03-29T02:28:26.511Z,1016.93
2019-03-29T02:29:26.534Z,1016.91
2019-03-29T02:30:26.510Z,1016.96
2019-03-29T02:31:28.819Z,1016.85
2019-03-29T02:32:26.467Z,1016.93
2019-03-29T02:33:26.468Z,1016.90
2019-03-29T02:34:26.473Z,1016.83
2019-03-29T02:35:26.437Z,1016.88
2019-03-29T02:36:26.429Z,1016.87
2019-03-29T02:37:26.413Z,1016.88
2019-03-29T02:38:26.434Z,1016.83
2019-03-29T02:39:27.051Z,1016.92
2019-03-29T02:40:26.397Z,1016.88
2019-03-29T02:41:26.375Z,1016.84
2019-03-29T02:42:26.373Z,1016.82
2019-03-29T02:43:26.352Z,1016.85
2019-03-29T02:44:26.377Z,1016.87
2019-03-29T02:45:26.343Z,1016.83
2019-03-29T02:46:26.329Z,1016.83
2019-03-29T02:47:26.307Z,1016.84
2019-03-29T02:48:26.308Z,1016.84
2019-03-29T02:49:26.325Z,1016.85
2019-03-29T02:50:26.289Z,1016.85
2019-03-29T02:51:26.323Z,1016.85
2019-03-29T02:52:26.279Z,1016.87
2019-03-29T02:53:26.253Z,1016.84
2019-03-29T02:54:26.271Z,1016.78
2019-03-29T02:55:26.228Z,1016.77
2019-03-29T02:56:26.218Z,1016.73
2019-03-29T02:57:26.210Z,1016.77
2019-03-29T02:58:26.194Z,1016.79
2019-03-29T02:59:26.224Z,1016.76
2019-03-29T03:00:26.177Z,1016.77
2019-03-29T03:01:26.181Z,1016.81
2019-03-29T03:02:26.717Z,1016.81
2019-03-29T03:03:26.147Z,1016.84
2019-03-29T03:04:26.185Z,1016.82
2019-03-29T03:05:26.127Z,1016.85
2019-03-29T03:06:26.107Z,1016.78
2019-03-29T03:07:26.105Z,1016.75
2019-03-29T03:08:26.104Z,1016.75
2019-03-29T03:09:26.124Z,1016.72
2019-03-29T03:10:26.073Z,1016.72
2019-03-29T03:11:26.062Z,1016.77
2019-03-29T03:12:26.052Z,1016.83
2019-03-29T03:13:26.045Z,1016.79
2019-03-29T03:14:26.071Z,1016.82
2019-03-29T03:15:26.014Z,1016.82
2019-03-29T03:16:26.008Z,1016.83
2019-03-29T03:17:25.993Z,1016.75
2019-03-29T03:18:25.996Z,1016.79
2019-03-29T03:19:26.001Z,1016.77
2019-03-29T03:20:25.976Z,1016.81
2019-03-29T03:21:25.959Z,1016.79
2019-03-29T03:22:25.951Z,1016.82
2019-03-29T03:23:25.931Z,1016.88
2019-03-29T03:24:25.962Z,1016.79
2019-03-29T03:25:25.919Z,1016.79
2019-03-29T03:26:36.889Z,1016.85
2019-03-29T03:27:25.874Z,1016.84
2019-03-29T03:28:25.871Z,1016.77
2019-03-29T03:29:25.894Z,1016.79
2019-03-29T03:30:25.850Z,1016.77
2019-03-29T03:31:25.841Z,1016.85
2019-03-29T03:32:25.840Z,1016.72
2019-03-29T03:33:25.830Z,1016.72
2019-03-29T03:34:25.848Z,1016.77
2019-03-29T03:35:25.816Z,1016.70
2019-03-29T03:36:25.795Z,1016.77
2019-03-29T03:37:25.790Z,1016.78
2019-03-29T03:38:25.778Z,1016.76
2019-03-29T03:39:31.994Z,1016.74
2019-03-29T03:40:26.769Z,1016.74
2019-03-29T03:41:25.753Z,1016.72
2019-03-29T03:42:25.747Z,1016.74
2019-03-29T03:43:25.736Z,1016.73
2019-03-29T03:44:25.740Z,1016.71
2019-03-29T03:45:25.706Z,1016.75
2019-03-29T03:46:25.688Z,1016.78
2019-03-29T03:47:25.686Z,1016.74
2019-03-29T03:48:25.662Z,1016.68
2019-03-29T03:49:25.734Z,1016.75
2019-03-29T03:50:25.645Z,1016.70
2019-03-29T03:51:25.648Z,1016.71
2019-03-29T03:52:25.640Z,1016.69
2019-03-29T03:53:25.617Z,1016.69
2019-03-29T03:54:25.615Z,1016.65
2019-03-29T03:55:25.645Z,1016.66
2019-03-29T03:56:25.582Z,1016.69
2019-03-29T03:57:25.575Z,1016.65
2019-03-29T03:58:25.566Z,1016.63
2019-03-29T03:59:25.562Z,1016.63
2019-03-29T04:00:25.593Z,1016.67
2019-03-29T04:01:25.536Z,1016.73
2019-03-29T04:02:25.521Z,1016.70
2019-03-29T04:03:25.516Z,1016.75
2019-03-29T04:04:25.505Z,1016.75
2019-03-29T04:05:25.519Z,1016.71
2019-03-29T04:06:25.486Z,1016.67
2019-03-29T04:07:25.476Z,1016.72
2019-03-29T04:08:25.455Z,1016.68
2019-03-29T04:09:25.483Z,1016.62
2019-03-29T04:10:25.576Z,1016.75
2019-03-29T04:11:25.426Z,1016.60
2019-03-29T04:12:25.415Z,1016.66
2019-03-29T04:13:25.420Z,1016.67
2019-03-29T04:14:25.405Z,1016.69
2019-03-29T04:15:25.423Z,1016.64
2019-03-29T04:16:25.363Z,1016.70
2019-03-29T04:17:25.414Z,1016.58
2019-03-29T04:18:25.353Z,1016.64
2019-03-29T04:19:25.346Z,1016.57
2019-03-29T04:20:25.367Z,1016.58
2019-03-29T04:21:25.329Z,1016.55
2019-03-29T04:22:25.314Z,1016.55
2019-03-29T04:23:25.319Z,1016.56
2019-03-29T04:24:25.293Z,1016.55
2019-03-29T04:25:25.305Z,1016.52
2019-03-29T04:26:25.272Z,1016.51
2019-03-29T04:27:25.254Z,1016.61
2019-03-29T04:28:25.255Z,1016.64
2019-03-29T04:29:25.239Z,1016.65
2019-03-29T04:30:25.263Z,1016.55
2019-03-29T04:31:25.212Z,1016.62
2019-03-29T04:32:25.219Z,1016.58
2019-03-29T04:33:25.199Z,1016.54
2019-03-29T04:34:25.178Z,1016.57
2019-03-29T04:35:25.212Z,1016.57
2019-03-29T04:36:25.181Z,1016.59
2019-03-29T04:37:25.165Z,1016.60
2019-03-29T04:38:25.269Z,1016.61
2019-03-29T04:39:25.135Z,1016.56
2019-03-29T04:40:25.156Z,1016.66
2019-03-29T04:41:25.108Z,1016.63
2019-03-29T04:42:25.106Z,1016.62
2019-03-29T04:43:25.087Z,1016.62
2019-03-29T04:44:25.087Z,1016.66
2019-03-29T04:45:25.093Z,1016.72
2019-03-29T04:46:25.062Z,1016.73
2019-03-29T04:47:25.043Z,1016.60
2019-03-29T04:48:25.041Z,1016.64
2019-03-29T04:49:25.022Z,1016.62
2019-03-29T04:50:25.045Z,1016.60
2019-03-29T04:51:24.994Z,1016.58
2019-03-29T04:52:25.003Z,1016.60
2019-03-29T04:53:24.997Z,1016.62
2019-03-29T04:54:24.969Z,1016.57
2019-03-29T04:55:24.993Z,1016.55
2019-03-29T04:56:24.953Z,1016.64
2019-03-29T04:57:25.027Z,1016.60
2019-03-29T04:58:24.947Z,1016.59
2019-03-29T04:59:24.936Z,1016.59
2019-03-29T05:00:24.943Z,1016.58
2019-03-29T05:01:24.902Z,1016.58
2019-03-29T05:02:24.889Z,1016.51
2019-03-29T05:03:24.897Z,1016.62
2019-03-29T05:04:24.867Z,1016.50
2019-03-29T05:05:24.902Z,1016.56
2019-03-29T05:06:24.843Z,1016.57
2019-03-29T05:07:24.857Z,1016.55
2019-03-29T05:08:24.829Z,1016.51
2019-03-29T05:09:24.810Z,1016.44
2019-03-29T05:10:24.837Z,1016.53
2019-03-29T05:11:24.788Z,1016.53
2019-03-29T05:12:24.783Z,1016.55
2019-03-29T05:13:24.771Z,1016.53
2019-03-29T05:14:24.762Z,1016.50
2019-03-29T05:15:24.785Z,1016.40
2019-03-29T05:16:24.739Z,1016.43
2019-03-29T05:17:24.730Z,1016.39
2019-03-29T05:18:24.724Z,1016.42
2019-03-29T05:19:24.706Z,1016.43
2019-03-29T05:20:24.725Z,1016.36
2019-03-29T05:21:24.691Z,1016.43
2019-03-29T05:22:24.677Z,1016.47
2019-03-29T05:23:24.662Z,1016.48
2019-03-29T05:24:24.654Z,1016.47
2019-03-29T05:25:24.685Z,1016.53
2019-03-29T05:26:25.619Z,1016.55
2019-03-29T05:27:24.640Z,1016.49
2019-03-29T05:28:24.646Z,1016.48
2019-03-29T05:29:24.601Z,1016.57
2019-03-29T05:30:24.627Z,1016.49
2019-03-29T05:31:24.581Z,1016.55
2019-03-29T05:32:24.573Z,1016.52
2019-03-29T05:33:24.571Z,1016.54
2019-03-29T05:34:24.565Z,1016.48
2019-03-29T05:35:24.574Z,1016.53
2019-03-29T05:36:24.540Z,1016.55
2019-03-29T05:37:24.519Z,1016.55
2019-03-29T05:38:24.514Z,1016.54
2019-03-29T05:39:24.512Z,1016.46
2019-03-29T05:40:34.944Z,1016.52
2019-03-29T05:41:25.482Z,1016.47
2019-03-29T05:42:24.497Z,1016.46
2019-03-29T05:43:24.458Z,1016.43
2019-03-29T05:44:24.461Z,1016.54
2019-03-29T05:45:24.474Z,1016.48
2019-03-29T05:46:24.429Z,1016.52
2019-03-29T05:47:24.414Z,1016.53
2019-03-29T05:48:24.407Z,1016.44
2019-03-29T05:49:24.399Z,1016.46
2019-03-29T05:50:24.409Z,1016.42
2019-03-29T05:51:24.397Z,1016.45
2019-03-29T05:52:24.365Z,1016.43
2019-03-29T05:53:24.349Z,1016.37
2019-03-29T05:54:24.341Z,1016.44
2019-03-29T05:55:32.381Z,1016.42
2019-03-29T05:56:25.320Z,1016.36
2019-03-29T05:57:24.314Z,1016.42
2019-03-29T05:58:24.287Z,1016.43
2019-03-29T05:59:24.277Z,1016.38
2019-03-29T06:00:24.299Z,1016.35
2019-03-29T06:01:24.355Z,1016.36
2019-03-29T06:02:24.326Z,1016.41
2019-03-29T06:03:24.298Z,1016.38
2019-03-29T06:04:24.250Z,1016.41
2019-03-29T06:05:24.279Z,1016.40
2019-03-29T06:06:24.219Z,1016.40
2019-03-29T06:07:24.207Z,1016.39
2019-03-29T06:08:24.198Z,1016.42
2019-03-29T06:09:24.173Z,1016.37
2019-03-29T06:10:24.247Z,1016.37
2019-03-29T06:11:24.186Z,1016.38
2019-03-29T06:12:24.153Z,1016.42
2019-03-29T06:13:24.385Z,1016.36
2019-03-29T06:14:24.131Z,1016.41
2019-03-29T06:15:24.126Z,1016.35
2019-03-29T06:16:38.057Z,1016.44
2019-03-29T06:17:25.101Z,1016.42
2019-03-29T06:18:24.089Z,1016.45
2019-03-29T06:19:24.077Z,1016.38
2019-03-29T06:20:24.127Z,1016.39
2019-03-29T06:21:24.085Z,1016.43
2019-03-29T06:22:24.034Z,1016.47
2019-03-29T06:23:24.034Z,1016.36
2019-03-29T06:24:24.012Z,1016.34
2019-03-29T06:25:24.078Z,1016.42
2019-03-29T06:26:24.025Z,1016.43
2019-03-29T06:27:23.991Z,1016.41
2019-03-29T06:28:23.990Z,1016.36
2019-03-29T06:29:23.966Z,1016.28
2019-03-29T06:30:23.969Z,1016.31
2019-03-29T06:31:23.967Z,1016.31
2019-03-29T06:32:23.977Z,1016.29
2019-03-29T06:33:23.917Z,1016.25
2019-03-29T06:34:23.933Z,1016.25
2019-03-29T06:35:23.911Z,1016.21
2019-03-29T06:36:23.940Z,1016.31
2019-03-29T06:37:23.889Z,1016.22
2019-03-29T06:38:23.875Z,1016.19
2019-03-29T06:39:23.862Z,1016.21
2019-03-29T06:40:23.868Z,1016.19
2019-03-29T06:41:23.862Z,1016.20
2019-03-29T06:42:23.826Z,1016.19
2019-03-29T06:43:23.841Z,1016.19
2019-03-29T06:44:23.814Z,1016.25
2019-03-29T06:45:23.822Z,1016.23
2019-03-29T06:46:23.818Z,1016.17
2019-03-29T06:47:23.775Z,1016.20
2019-03-29T06:48:23.775Z,1016.21
2019-03-29T06:49:23.764Z,1016.18
2019-03-29T06:50:23.744Z,1016.21
2019-03-29T06:51:23.759Z,1016.26
2019-03-29T06:52:23.736Z,1016.23
2019-03-29T06:53:23.746Z,1016.23
2019-03-29T06:54:23.715Z,1016.17
2019-03-29T06:55:23.714Z,1016.23
2019-03-29T06:56:23.733Z,1016.24
2019-03-29T06:57:23.674Z,1016.28
2019-03-29T06:58:23.664Z,1016.25
2019-03-29T06:59:23.641Z,1016.26
2019-03-29T07:00:23.631Z,1016.24
2019-03-29T07:01:23.647Z,1016.30
2019-03-29T07:02:23.617Z,1016.27
2019-03-29T07:03:23.605Z,1016.26
2019-03-29T07:04:23.588Z,1016.16
2019-03-29T07:05:23.590Z,1016.25
2019-03-29T07:06:23.604Z,1016.28
2019-03-29T07:07:23.567Z,1016.23
2019-03-29T07:08:23.600Z,1016.24
2019-03-29T07:09:23.550Z,1016.22
2019-03-29T07:10:23.541Z,1016.26
2019-03-29T07:11:23.550Z,1016.23
2019-03-29T07:12:23.512Z,1016.22
2019-03-29T07:13:23.527Z,1016.27
2019-03-29T07:14:23.488Z,1016.18
2019-03-29T07:15:23.496Z,1016.22
2019-03-29T07:16:23.533Z,1016.23
2019-03-29T07:17:23.476Z,1016.26
2019-03-29T07:18:23.448Z,1016.28
2019-03-29T07:19:23.437Z,1016.24
2019-03-29T07:20:23.441Z,1016.27
2019-03-29T07:21:23.470Z,1016.26
2019-03-29T07:22:23.412Z,1016.24
2019-03-29T07:23:23.430Z,1016.26
2019-03-29T07:24:23.398Z,1016.16
2019-03-29T07:25:23.378Z,1016.21
2019-03-29T07:26:23.404Z,1016.24
2019-03-29T07:27:23.357Z,1016.20
2019-03-29T07:28:23.345Z,1016.29
2019-03-29T07:29:23.340Z,1016.27
2019-03-29T07:30:23.319Z,1016.27
2019-03-29T07:31:23.345Z,1016.30
2019-03-29T07:32:23.294Z,1016.33
2019-03-29T07:33:23.286Z,1016.27
2019-03-29T07:34:23.277Z,1016.30
2019-03-29T07:35:23.328Z,1016.22
2019-03-29T07:36:23.281Z,1016.31
2019-03-29T07:37:23.239Z,1016.25
2019-03-29T07:38:23.226Z,1016.29
2019-03-29T07:39:23.219Z,1016.24
2019-03-29T07:40:23.211Z,1016.28
2019-03-29T07:41:31.802Z,1016.31
2019-03-29T07:42:24.190Z,1016.30
2019-03-29T07:43:24.122Z,1016.33
2019-03-29T07:44:23.168Z,1016.30
2019-03-29T07:45:23.154Z,1016.30
2019-03-29T07:46:23.184Z,1016.28
2019-03-29T07:47:23.138Z,1016.29
2019-03-29T07:48:23.127Z,1016.28
2019-03-29T07:49:23.118Z,1016.25
2019-03-29T07:50:23.108Z,1016.24
2019-03-29T07:51:23.129Z,1016.22
2019-03-29T07:52:23.090Z,1016.29
2019-03-29T07:53:23.087Z,1016.29
2019-03-29T07:54:23.064Z,1016.31
2019-03-29T07:55:23.051Z,1016.25
2019-03-29T07:56:23.035Z,1016.22
2019-03-29T07:57:23.050Z,1016.29
2019-03-29T07:58:23.019Z,1016.28
2019-03-29T07:59:23.339Z,1016.29
2019-03-29T08:00:22.997Z,1016.30
2019-03-29T08:01:22.981Z,1016.29
2019-03-29T08:02:23.003Z,1016.36
2019-03-29T08:03:23.559Z,1016.30
2019-03-29T08:04:23.892Z,1016.30
2019-03-29T08:05:22.947Z,1016.40
2019-03-29T08:06:22.926Z,1016.38
2019-03-29T08:07:27.584Z,1016.36
2019-03-29T08:08:30.442Z,1016.36
2019-03-29T08:09:23.895Z,1016.40
2019-03-29T08:10:27.565Z,1016.40
2019-03-29T08:11:26.228Z,1016.42
2019-03-29T08:12:22.952Z,1016.41
2019-03-29T08:13:22.852Z,1016.37
2019-03-29T08:14:22.849Z,1016.35
2019-03-29T08:15:22.842Z,1016.41
2019-03-29T08:16:22.841Z,1016.37
2019-03-29T08:17:22.845Z,1016.34
2019-03-29T08:18:22.806Z,1016.41
2019-03-29T08:19:22.796Z,1016.34
2019-03-29T08:20:40.158Z,1016.33
2019-03-29T08:21:23.834Z,1016.40
2019-03-29T08:22:22.796Z,1016.37
2019-03-29T08:23:22.754Z,1016.31
2019-03-29T08:24:23.574Z,1016.43
2019-03-29T08:25:22.730Z,1016.44
2019-03-29T08:26:22.864Z,1016.35
2019-03-29T08:27:22.751Z,1016.36
2019-03-29T08:28:22.738Z,1016.39
2019-03-29T08:29:22.690Z,1016.40
2019-03-29T08:30:22.682Z,1016.38
2019-03-29T08:31:22.674Z,1016.35
2019-03-29T08:32:22.681Z,1016.38
2019-03-29T08:33:22.642Z,1016.49
2019-03-29T08:34:22.635Z,1016.44
2019-03-29T08:35:22.628Z,1016.38
2019-03-29T08:36:22.616Z,1016.43
2019-03-29T08:37:22.638Z,1016.44
2019-03-29T08:38:22.594Z,1016.46
2019-03-29T08:39:28.271Z,1016.44
2019-03-29T08:40:23.632Z,1016.42
2019-03-29T08:41:22.588Z,1016.42
2019-03-29T08:42:22.588Z,1016.42
2019-03-29T08:43:22.539Z,1016.43
2019-03-29T08:44:22.532Z,1016.43
2019-03-29T08:45:22.530Z,1016.43
2019-03-29T08:46:22.543Z,1016.50
2019-03-29T08:47:22.630Z,1016.46
2019-03-29T08:48:22.497Z,1016.48
2019-03-29T08:49:22.493Z,1016.42
2019-03-29T08:50:22.469Z,1016.43
2019-03-29T08:51:22.464Z,1016.42
2019-03-29T08:52:22.479Z,1016.45
2019-03-29T08:53:22.451Z,1016.42
2019-03-29T08:54:22.434Z,1016.47
2019-03-29T08:55:22.449Z,1016.37
2019-03-29T08:56:22.502Z,1016.41
2019-03-29T08:57:22.519Z,1016.39
2019-03-29T08:58:22.951Z,1016.36
2019-03-29T08:59:22.875Z,1016.37
2019-03-29T09:00:22.360Z,1016.39
2019-03-29T09:01:22.415Z,1016.37
2019-03-29T09:02:25.039Z,1016.42
2019-03-29T09:03:22.391Z,1016.38
2019-03-29T09:04:22.460Z,1016.34
2019-03-29T09:05:22.348Z,1016.36
2019-03-29T09:06:22.889Z,1016.34
2019-03-29T09:07:22.892Z,1016.41
2019-03-29T09:08:22.287Z,1016.40
2019-03-29T09:09:22.260Z,1016.39
2019-03-29T09:10:22.263Z,1016.29
2019-03-29T09:11:22.255Z,1016.31
2019-03-29T09:12:22.267Z,1016.31
2019-03-29T09:13:22.246Z,1016.27
2019-03-29T09:14:22.211Z,1016.37
2019-03-29T09:15:22.204Z,1016.36
2019-03-29T09:16:22.197Z,1016.36
2019-03-29T09:17:22.220Z,1016.33
2019-03-29T09:18:25.648Z,1016.34
2019-03-29T09:19:22.175Z,1016.24
2019-03-29T09:20:22.158Z,1016.30
2019-03-29T09:21:22.145Z,1016.20
2019-03-29T09:22:22.156Z,1016.26
2019-03-29T09:23:22.160Z,1016.25
2019-03-29T09:24:22.602Z,1016.21
2019-03-29T09:25:22.108Z,1016.24
2019-03-29T09:26:22.098Z,1016.29
2019-03-29T09:27:22.122Z,1016.28
2019-03-29T09:28:22.068Z,1016.26
2019-03-29T09:29:22.063Z,1016.26
2019-03-29T09:30:22.057Z,1016.31
2019-03-29T09:31:22.041Z,1016.32
2019-03-29T09:32:22.050Z,1016.27
2019-03-29T09:33:22.022Z,1016.10
2019-03-29T09:34:22.011Z,1016.25
2019-03-29T09:35:21.993Z,1016.24
2019-03-29T09:36:21.981Z,1016.12
2019-03-29T09:37:22.002Z,1016.19
2019-03-29T09:38:21.965Z,1016.29
2019-03-29T09:39:21.963Z,1016.21
2019-03-29T09:40:21.991Z,1016.13
2019-03-29T09:41:21.940Z,1016.09
2019-03-29T09:42:28.852Z,1016.09
2019-03-29T09:43:26.290Z,1016.14
2019-03-29T09:44:21.914Z,1016.03
2019-03-29T09:45:21.897Z,1016.04
2019-03-29T09:46:21.882Z,1016.00
2019-03-29T09:47:21.878Z,1015.96
2019-03-29T09:48:21.890Z,1016.00
2019-03-29T09:49:21.852Z,1016.03
2019-03-29T09:50:23.039Z,1016.01
2019-03-29T09:51:21.831Z,1015.98
2019-03-29T09:52:21.820Z,1016.00
2019-03-29T09:53:21.926Z,1015.99
2019-03-29T09:54:21.808Z,1015.96
2019-03-29T09:55:21.790Z,1016.00
2019-03-29T09:56:21.780Z,1015.98
2019-03-29T09:57:36.086Z,1015.91
2019-03-29T09:58:22.786Z,1015.98
2019-03-29T09:59:23.297Z,1015.98
2019-03-29T10:00:23.451Z,1015.96
2019-03-29T10:01:21.758Z,1015.92
2019-03-29T10:02:21.713Z,1015.97
2019-03-29T10:03:21.737Z,1015.96
2019-03-29T10:04:21.710Z,1015.92
2019-03-29T10:05:21.687Z,1015.99
2019-03-29T10:06:21.696Z,1015.97
2019-03-29T10:07:21.659Z,1015.92
2019-03-29T10:08:21.688Z,1015.85
2019-03-29T10:09:21.656Z,1015.88
2019-03-29T10:10:21.643Z,1015.80
2019-03-29T10:11:22.229Z,1015.86
2019-03-29T10:12:21.626Z,1015.77
2019-03-29T10:13:21.634Z,1015.86
2019-03-29T10:14:21.591Z,1015.84
2019-03-29T10:15:21.591Z,1015.68
2019-03-29T10:16:21.572Z,1015.73
2019-03-29T10:17:21.567Z,1015.78
2019-03-29T10:18:21.578Z,1015.78
2019-03-29T10:19:21.537Z,1015.78
2019-03-29T10:20:21.532Z,1015.76
2019-03-29T10:21:21.519Z,1015.78
2019-03-29T10:22:21.516Z,1015.81
2019-03-29T10:23:21.529Z,1015.82
2019-03-29T10:24:21.503Z,1015.77
2019-03-29T10:25:21.765Z,1015.71
2019-03-29T10:26:21.473Z,1015.71
2019-03-29T10:27:21.458Z,1015.71
2019-03-29T10:28:21.480Z,1015.69
2019-03-29T10:29:21.457Z,1015.63
2019-03-29T10:30:21.440Z,1015.62
2019-03-29T10:31:32.124Z,1015.62
2019-03-29T10:32:22.411Z,1015.58
2019-03-29T10:33:21.416Z,1015.53
2019-03-29T10:34:21.388Z,1015.55
2019-03-29T10:35:21.388Z,1015.51
2019-03-29T10:36:21.374Z,1015.50
2019-03-29T10:37:21.361Z,1015.49
2019-03-29T10:38:21.389Z,1015.48
2019-03-29T10:39:21.336Z,1015.46
2019-03-29T10:40:21.912Z,1015.48
2019-03-29T10:41:22.677Z,1015.49
2019-03-29T10:42:21.320Z,1015.39
2019-03-29T10:43:21.418Z,1015.42
2019-03-29T10:44:21.283Z,1015.46
2019-03-29T10:45:21.272Z,1015.39
2019-03-29T10:46:21.272Z,1015.37
2019-03-29T10:47:21.264Z,1015.35
2019-03-29T10:48:21.281Z,1015.38
2019-03-29T10:49:21.248Z,1015.35
2019-03-29T10:50:21.219Z,1015.34
2019-03-29T10:51:21.215Z,1015.37
2019-03-29T10:52:21.208Z,1015.34
2019-03-29T10:53:21.235Z,1015.28
2019-03-29T10:54:21.191Z,1015.31
2019-03-29T10:55:21.170Z,1015.26
2019-03-29T10:56:33.409Z,1015.23
2019-03-29T10:57:22.157Z,1015.24
2019-03-29T10:58:21.177Z,1015.18
2019-03-29T10:59:27.174Z,1015.26
2019-03-29T11:00:22.129Z,1015.25
2019-03-29T11:01:24.480Z,1015.21
2019-03-29T11:02:21.102Z,1015.24
2019-03-29T11:03:21.172Z,1015.17
2019-03-29T11:04:21.087Z,1015.12
2019-03-29T11:05:21.082Z,1015.10
2019-03-29T11:06:21.067Z,1015.06
2019-03-29T11:07:21.061Z,1015.08
2019-03-29T11:08:21.088Z,1015.02
2019-03-29T11:09:21.039Z,1015.08
2019-03-29T11:10:21.026Z,1015.03
2019-03-29T11:11:21.022Z,1015.04
2019-03-29T11:12:21.011Z,1015.06
2019-03-29T11:13:21.042Z,1015.07
2019-03-29T11:14:20.983Z,1015.02
2019-03-29T11:15:20.977Z,1015.07
2019-03-29T11:16:20.972Z,1015.05
2019-03-29T11:17:20.962Z,1014.95
2019-03-29T11:18:21.002Z,1014.94
2019-03-29T11:19:20.937Z,1015.01
2019-03-29T11:20:20.938Z,1015.01
2019-03-29T11:21:20.935Z,1015.01
2019-03-29T11:22:20.907Z,1015.04
2019-03-29T11:23:30.009Z,1015.01
2019-03-29T11:24:20.877Z,1014.94
2019-03-29T11:25:20.872Z,1014.90
2019-03-29T11:26:20.867Z,1014.89
2019-03-29T11:27:22.454Z,1014.96
2019-03-29T11:28:20.842Z,1014.94
2019-03-29T11:29:20.848Z,1014.93
2019-03-29T11:30:20.815Z,1014.86
2019-03-29T11:31:20.818Z,1014.91
2019-03-29T11:32:20.809Z,1014.90
2019-03-29T11:33:20.788Z,1014.95
2019-03-29T11:34:21.155Z,1014.91
2019-03-29T11:35:20.779Z,1014.95
2019-03-29T11:36:20.759Z,1014.98
2019-03-29T11:37:20.749Z,1014.88
2019-03-29T11:38:20.746Z,1014.89
2019-03-29T11:39:20.759Z,1014.91
2019-03-29T11:40:20.717Z,1014.82
2019-03-29T11:41:20.707Z,1014.84
2019-03-29T11:42:20.695Z,1014.82
2019-03-29T11:43:27.017Z,1014.79
2019-03-29T11:44:21.712Z,1014.79
2019-03-29T11:45:20.664Z,1014.74
2019-03-29T11:46:20.661Z,1014.75
2019-03-29T11:47:20.670Z,1014.78
2019-03-29T11:48:20.635Z,1014.72
2019-03-29T11:49:20.649Z,1014.70
2019-03-29T11:50:20.620Z,1014.64
2019-03-29T11:51:20.599Z,1014.58
2019-03-29T11:52:20.586Z,1014.58
2019-03-29T11:53:20.592Z,1014.59
2019-03-29T11:54:20.612Z,1014.61
2019-03-29T11:55:20.566Z,1014.59
2019-03-29T11:56:20.569Z,1014.53
2019-03-29T11:57:20.544Z,1014.51
2019-03-29T11:58:20.538Z,1014.53
2019-03-29T11:59:20.552Z,1014.44
2019-03-29T12:00:20.512Z,1014.47
2019-03-29T12:01:20.508Z,1014.44
2019-03-29T12:02:31.059Z,1014.42
2019-03-29T12:03:21.488Z,1014.40
2019-03-29T12:04:20.521Z,1014.34
2019-03-29T12:05:20.493Z,1014.41